sensor_id;sensor_type;location;lat;lon;timestamp;P1;durP1;ratioP1;P2;durP2;ratioP2
8102;SDS011;4094;49.948;11.574;2023-10-19T00:02:48;22.03;;;20.00;;
8102;SDS011;4094;49.948;11.574;2023-10-19T00:05:20;21.20;;;19.40;;
8102;SDS011;4094;49.948;11.574;2023-10-19T00:07:49;21.23;;;19.43;;
8102;SDS011;4094;49.948;11.574;2023-10-19T00:10:17;20.47;;;18.63;;
8102;SDS011;4094;49.948;11.574;2023-10-19T00:12:48;20.63;;;18.93;;
8102;SDS011;4094;49.948;11.574;2023-10-19T00:15:24;20.23;;;18.23;;
8102;SDS011;4094;49.948;11.574;2023-10-19T00:17:54;20.93;;;19.13;;
8102;SDS011;4094;49.948;11.574;2023-10-19T00:20:23;21.17;;;19.37;;
8102;SDS011;4094;49.948;11.574;2023-10-19T00:23:04;21.00;;;19.30;;
8102;SDS011;4094;49.948;11.574;2023-10-19T00:25:33;20.37;;;18.47;;
8102;SDS011;4094;49.948;11.574;2023-10-19T00:28:03;21.17;;;19.27;;
8102;SDS011;4094;49.948;11.574;2023-10-19T00:30:32;22.03;;;19.93;;
8102;SDS011;4094;49.948;11.574;2023-10-19T00:33:03;19.83;;;18.03;;
8102;SDS011;4094;49.948;11.574;2023-10-19T00:35:42;21.23;;;19.40;;
8102;SDS011;4094;49.948;11.574;2023-10-19T00:38:17;21.63;;;19.93;;
8102;SDS011;4094;49.948;11.574;2023-10-19T00:40:54;21.17;;;19.47;;
8102;SDS011;4094;49.948;11.574;2023-10-19T00:43:33;22.13;;;20.20;;
8102;SDS011;4094;49.948;11.574;2023-10-19T00:46:04;22.47;;;20.50;;
8102;SDS011;4094;49.948;11.574;2023-10-19T00:48:37;20.77;;;18.97;;
8102;SDS011;4094;49.948;11.574;2023-10-19T00:51:07;21.83;;;20.03;;
8102;SDS011;4094;49.948;11.574;2023-10-19T00:53:40;21.37;;;19.67;;
8102;SDS011;4094;49.948;11.574;2023-10-19T00:56:09;21.57;;;19.77;;
8102;SDS011;4094;49.948;11.574;2023-10-19T00:58:40;21.90;;;20.00;;
8102;SDS011;4094;49.948;11.574;2023-10-19T01:01:09;21.20;;;19.40;;
8102;SDS011;4094;49.948;11.574;2023-10-19T01:03:38;22.23;;;20.30;;
8102;SDS011;4094;49.948;11.574;2023-10-19T01:06:07;21.37;;;19.57;;
8102;SDS011;4094;49.948;11.574;2023-10-19T01:08:40;22.07;;;20.17;;
8102;SDS011;4094;49.948;11.574;2023-10-19T01:11:12;22.40;;;20.40;;
8102;SDS011;4094;49.948;11.574;2023-10-19T01:13:44;21.57;;;19.57;;
8102;SDS011;4094;49.948;11.574;2023-10-19T01:16:14;22.63;;;20.83;;
8102;SDS011;4094;49.948;11.574;2023-10-19T01:18:48;21.83;;;20.13;;
8102;SDS011;4094;49.948;11.574;2023-10-19T01:21:22;21.50;;;19.70;;
8102;SDS011;4094;49.948;11.574;2023-10-19T01:23:56;22.17;;;20.27;;
8102;SDS011;4094;49.948;11.574;2023-10-19T01:26:26;23.57;;;21.57;;
8102;SDS011;4094;49.948;11.574;2023-10-19T01:28:55;22.50;;;20.60;;
8102;SDS011;4094;49.948;11.574;2023-10-19T01:31:28;23.10;;;20.77;;
8102;SDS011;4094;49.948;11.574;2023-10-19T01:34:06;23.17;;;21.27;;
8102;SDS011;4094;49.948;11.574;2023-10-19T01:36:37;21.93;;;20.13;;
8102;SDS011;4094;49.948;11.574;2023-10-19T01:39:11;22.17;;;20.17;;
8102;SDS011;4094;49.948;11.574;2023-10-19T01:41:40;22.33;;;20.63;;
8102;SDS011;4094;49.948;11.574;2023-10-19T01:44:09;23.13;;;20.67;;
8102;SDS011;4094;49.948;11.574;2023-10-19T01:46:41;22.97;;;20.70;;
8102;SDS011;4094;49.948;11.574;2023-10-19T01:49:12;23.60;;;21.63;;
8102;SDS011;4094;49.948;11.574;2023-10-19T01:51:41;22.80;;;20.70;;
8102;SDS011;4094;49.948;11.574;2023-10-19T01:54:12;22.87;;;20.87;;
8102;SDS011;4094;49.948;11.574;2023-10-19T01:56:41;22.47;;;20.57;;
8102;SDS011;4094;49.948;11.574;2023-10-19T01:59:11;21.43;;;19.63;;
8102;SDS011;4094;49.948;11.574;2023-10-19T02:01:40;21.63;;;19.87;;
8102;SDS011;4094;49.948;11.574;2023-10-19T02:04:12;21.67;;;19.87;;
8102;SDS011;4094;49.948;11.574;2023-10-19T02:06:41;21.80;;;19.80;;
8102;SDS011;4094;49.948;11.574;2023-10-19T02:09:14;22.80;;;20.70;;
8102;SDS011;4094;49.948;11.574;2023-10-19T02:11:49;22.60;;;20.60;;
8102;SDS011;4094;49.948;11.574;2023-10-19T02:14:20;22.07;;;20.17;;
8102;SDS011;4094;49.948;11.574;2023-10-19T02:16:49;22.67;;;20.73;;
8102;SDS011;4094;49.948;11.574;2023-10-19T02:19:20;22.87;;;20.97;;
8102;SDS011;4094;49.948;11.574;2023-10-19T02:21:50;23.50;;;21.50;;
8102;SDS011;4094;49.948;11.574;2023-10-19T02:24:22;21.73;;;20.00;;
8102;SDS011;4094;49.948;11.574;2023-10-19T02:26:50;21.47;;;19.87;;
8102;SDS011;4094;49.948;11.574;2023-10-19T02:29:21;22.73;;;20.90;;
8102;SDS011;4094;49.948;11.574;2023-10-19T02:31:50;22.17;;;20.27;;
8102;SDS011;4094;49.948;11.574;2023-10-19T02:34:20;22.53;;;20.67;;
8102;SDS011;4094;49.948;11.574;2023-10-19T02:36:50;22.07;;;20.13;;
8102;SDS011;4094;49.948;11.574;2023-10-19T02:39:22;22.57;;;20.63;;
8102;SDS011;4094;49.948;11.574;2023-10-19T02:41:55;22.40;;;20.63;;
8102;SDS011;4094;49.948;11.574;2023-10-19T02:44:28;22.73;;;20.83;;
8102;SDS011;4094;49.948;11.574;2023-10-19T02:46:58;22.20;;;20.30;;
8102;SDS011;4094;49.948;11.574;2023-10-19T02:49:29;22.00;;;20.10;;
8102;SDS011;4094;49.948;11.574;2023-10-19T02:51:58;22.27;;;20.43;;
8102;SDS011;4094;49.948;11.574;2023-10-19T02:54:33;22.47;;;20.63;;
8102;SDS011;4094;49.948;11.574;2023-10-19T02:57:02;22.40;;;20.30;;
8102;SDS011;4094;49.948;11.574;2023-10-19T02:59:35;21.90;;;19.90;;
8102;SDS011;4094;49.948;11.574;2023-10-19T03:02:03;22.17;;;20.33;;
8102;SDS011;4094;49.948;11.574;2023-10-19T03:04:44;22.90;;;21.10;;
8102;SDS011;4094;49.948;11.574;2023-10-19T03:07:13;22.83;;;20.93;;
8102;SDS011;4094;49.948;11.574;2023-10-19T03:09:44;22.97;;;20.97;;
8102;SDS011;4094;49.948;11.574;2023-10-19T03:12:16;23.70;;;21.50;;
8102;SDS011;4094;49.948;11.574;2023-10-19T03:14:46;22.50;;;20.67;;
8102;SDS011;4094;49.948;11.574;2023-10-19T03:17:15;21.80;;;20.00;;
8102;SDS011;4094;49.948;11.574;2023-10-19T03:19:45;22.37;;;20.47;;
8102;SDS011;4094;49.948;11.574;2023-10-19T03:22:13;23.00;;;21.10;;
8102;SDS011;4094;49.948;11.574;2023-10-19T03:24:45;21.97;;;20.07;;
8102;SDS011;4094;49.948;11.574;2023-10-19T03:27:14;22.00;;;19.90;;
8102;SDS011;4094;49.948;11.574;2023-10-19T03:29:45;21.97;;;20.17;;
8102;SDS011;4094;49.948;11.574;2023-10-19T03:32:20;22.63;;;20.73;;
8102;SDS011;4094;49.948;11.574;2023-10-19T03:34:54;22.67;;;20.77;;
8102;SDS011;4094;49.948;11.574;2023-10-19T03:37:24;22.90;;;21.00;;
8102;SDS011;4094;49.948;11.574;2023-10-19T03:39:58;22.40;;;20.50;;
8102;SDS011;4094;49.948;11.574;2023-10-19T03:42:31;22.10;;;20.30;;
8102;SDS011;4094;49.948;11.574;2023-10-19T03:45:00;23.13;;;20.93;;
8102;SDS011;4094;49.948;11.574;2023-10-19T03:47:35;22.97;;;21.07;;
8102;SDS011;4094;49.948;11.574;2023-10-19T03:50:06;22.37;;;20.57;;
8102;SDS011;4094;49.948;11.574;2023-10-19T03:52:47;22.50;;;20.70;;
8102;SDS011;4094;49.948;11.574;2023-10-19T03:55:18;22.30;;;20.43;;
8102;SDS011;4094;49.948;11.574;2023-10-19T03:57:51;21.40;;;19.60;;
8102;SDS011;4094;49.948;11.574;2023-10-19T04:00:22;23.17;;;21.10;;
8102;SDS011;4094;49.948;11.574;2023-10-19T04:02:54;22.30;;;20.50;;
8102;SDS011;4094;49.948;11.574;2023-10-19T04:05:26;22.77;;;20.90;;
8102;SDS011;4094;49.948;11.574;2023-10-19T04:07:56;23.70;;;21.60;;
8102;SDS011;4094;49.948;11.574;2023-10-19T04:10:27;21.33;;;19.53;;
8102;SDS011;4094;49.948;11.574;2023-10-19T04:13:11;22.83;;;20.97;;
8102;SDS011;4094;49.948;11.574;2023-10-19T04:15:41;20.67;;;18.87;;
8102;SDS011;4094;49.948;11.574;2023-10-19T04:18:10;21.47;;;19.67;;
8102;SDS011;4094;49.948;11.574;2023-10-19T04:20:39;23.30;;;21.30;;
8102;SDS011;4094;49.948;11.574;2023-10-19T04:23:22;21.67;;;19.90;;
8102;SDS011;4094;49.948;11.574;2023-10-19T04:25:56;23.93;;;21.97;;
8102;SDS011;4094;49.948;11.574;2023-10-19T04:28:26;23.50;;;21.40;;
8102;SDS011;4094;49.948;11.574;2023-10-19T04:31:06;22.60;;;20.57;;
8102;SDS011;4094;49.948;11.574;2023-10-19T04:33:41;22.40;;;20.40;;
8102;SDS011;4094;49.948;11.574;2023-10-19T04:36:13;22.43;;;20.60;;
8102;SDS011;4094;49.948;11.574;2023-10-19T04:38:43;22.87;;;20.77;;
8102;SDS011;4094;49.948;11.574;2023-10-19T04:41:14;22.37;;;20.67;;
8102;SDS011;4094;49.948;11.574;2023-10-19T04:43:43;22.17;;;20.27;;
8102;SDS011;4094;49.948;11.574;2023-10-19T04:46:17;22.97;;;21.20;;
8102;SDS011;4094;49.948;11.574;2023-10-19T04:48:47;22.67;;;20.67;;
8102;SDS011;4094;49.948;11.574;2023-10-19T04:51:17;22.43;;;20.47;;
8102;SDS011;4094;49.948;11.574;2023-10-19T04:53:46;22.83;;;20.97;;
8102;SDS011;4094;49.948;11.574;2023-10-19T04:56:20;21.77;;;20.07;;
8102;SDS011;4094;49.948;11.574;2023-10-19T04:58:59;23.10;;;21.20;;
8102;SDS011;4094;49.948;11.574;2023-10-19T05:01:28;23.70;;;21.77;;
8102;SDS011;4094;49.948;11.574;2023-10-19T05:04:00;22.80;;;20.90;;
8102;SDS011;4094;49.948;11.574;2023-10-19T05:06:29;23.03;;;21.00;;
8102;SDS011;4094;49.948;11.574;2023-10-19T05:08:58;23.47;;;21.17;;
8102;SDS011;4094;49.948;11.574;2023-10-19T05:11:31;22.40;;;20.60;;
8102;SDS011;4094;49.948;11.574;2023-10-19T05:14:00;22.87;;;20.97;;
8102;SDS011;4094;49.948;11.574;2023-10-19T05:16:32;23.37;;;21.47;;
8102;SDS011;4094;49.948;11.574;2023-10-19T05:19:02;23.37;;;21.43;;
8102;SDS011;4094;49.948;11.574;2023-10-19T05:21:32;23.10;;;21.20;;
8102;SDS011;4094;49.948;11.574;2023-10-19T05:24:02;21.50;;;19.70;;
8102;SDS011;4094;49.948;11.574;2023-10-19T05:26:34;23.23;;;21.33;;
8102;SDS011;4094;49.948;11.574;2023-10-19T05:29:03;22.67;;;20.77;;
8102;SDS011;4094;49.948;11.574;2023-10-19T05:31:33;23.60;;;21.60;;
8102;SDS011;4094;49.948;11.574;2023-10-19T05:34:02;23.07;;;21.07;;
8102;SDS011;4094;49.948;11.574;2023-10-19T05:36:32;24.10;;;22.10;;
8102;SDS011;4094;49.948;11.574;2023-10-19T05:39:01;22.67;;;20.67;;
8102;SDS011;4094;49.948;11.574;2023-10-19T05:41:31;23.30;;;21.27;;
8102;SDS011;4094;49.948;11.574;2023-10-19T05:44:02;24.17;;;22.07;;
8102;SDS011;4094;49.948;11.574;2023-10-19T05:46:32;22.67;;;20.63;;
8102;SDS011;4094;49.948;11.574;2023-10-19T05:49:01;23.50;;;21.50;;
8102;SDS011;4094;49.948;11.574;2023-10-19T05:51:31;22.17;;;20.27;;
8102;SDS011;4094;49.948;11.574;2023-10-19T05:54:00;24.40;;;22.37;;
8102;SDS011;4094;49.948;11.574;2023-10-19T05:56:30;21.93;;;19.83;;
8102;SDS011;4094;49.948;11.574;2023-10-19T05:59:03;23.03;;;21.03;;
8102;SDS011;4094;49.948;11.574;2023-10-19T06:01:34;23.77;;;21.77;;
8102;SDS011;4094;49.948;11.574;2023-10-19T06:04:04;23.87;;;21.87;;
8102;SDS011;4094;49.948;11.574;2023-10-19T06:06:34;23.17;;;21.17;;
8102;SDS011;4094;49.948;11.574;2023-10-19T06:09:04;23.67;;;21.67;;
8102;SDS011;4094;49.948;11.574;2023-10-19T06:11:35;22.87;;;20.87;;
8102;SDS011;4094;49.948;11.574;2023-10-19T06:14:11;23.27;;;21.30;;
8102;SDS011;4094;49.948;11.574;2023-10-19T06:16:40;24.03;;;21.70;;
8102;SDS011;4094;49.948;11.574;2023-10-19T06:19:10;22.97;;;21.07;;
8102;SDS011;4094;49.948;11.574;2023-10-19T06:21:39;23.97;;;21.90;;
8102;SDS011;4094;49.948;11.574;2023-10-19T06:24:08;23.13;;;21.03;;
8102;SDS011;4094;49.948;11.574;2023-10-19T06:26:42;23.67;;;21.60;;
8102;SDS011;4094;49.948;11.574;2023-10-19T06:29:12;23.17;;;21.23;;
8102;SDS011;4094;49.948;11.574;2023-10-19T06:31:41;23.13;;;21.20;;
8102;SDS011;4094;49.948;11.574;2023-10-19T06:34:11;22.90;;;21.00;;
8102;SDS011;4094;49.948;11.574;2023-10-19T06:36:40;23.73;;;21.63;;
8102;SDS011;4094;49.948;11.574;2023-10-19T06:39:09;23.77;;;21.77;;
8102;SDS011;4094;49.948;11.574;2023-10-19T06:41:40;23.63;;;21.43;;
8102;SDS011;4094;49.948;11.574;2023-10-19T06:44:10;23.70;;;21.63;;
8102;SDS011;4094;49.948;11.574;2023-10-19T06:46:40;24.93;;;22.67;;
8102;SDS011;4094;49.948;11.574;2023-10-19T06:49:10;23.50;;;21.60;;
8102;SDS011;4094;49.948;11.574;2023-10-19T06:51:39;23.53;;;21.53;;
8102;SDS011;4094;49.948;11.574;2023-10-19T06:54:09;24.17;;;22.10;;
8102;SDS011;4094;49.948;11.574;2023-10-19T06:56:40;22.77;;;20.87;;
8102;SDS011;4094;49.948;11.574;2023-10-19T06:59:09;23.83;;;21.83;;
8102;SDS011;4094;49.948;11.574;2023-10-19T07:01:38;23.90;;;21.83;;
8102;SDS011;4094;49.948;11.574;2023-10-19T07:04:09;23.50;;;21.60;;
8102;SDS011;4094;49.948;11.574;2023-10-19T07:06:39;24.03;;;22.03;;
8102;SDS011;4094;49.948;11.574;2023-10-19T07:09:08;23.60;;;21.50;;
8102;SDS011;4094;49.948;11.574;2023-10-19T07:11:38;23.10;;;20.97;;
8102;SDS011;4094;49.948;11.574;2023-10-19T07:14:07;24.80;;;22.70;;
8102;SDS011;4094;49.948;11.574;2023-10-19T07:16:37;24.00;;;22.00;;
8102;SDS011;4094;49.948;11.574;2023-10-19T07:19:06;23.80;;;21.80;;
8102;SDS011;4094;49.948;11.574;2023-10-19T07:21:37;23.23;;;21.23;;
8102;SDS011;4094;49.948;11.574;2023-10-19T07:24:10;23.83;;;21.83;;
8102;SDS011;4094;49.948;11.574;2023-10-19T07:26:39;23.90;;;21.97;;
8102;SDS011;4094;49.948;11.574;2023-10-19T07:29:19;22.50;;;20.60;;
8102;SDS011;4094;49.948;11.574;2023-10-19T07:31:48;23.60;;;21.57;;
8102;SDS011;4094;49.948;11.574;2023-10-19T07:34:21;23.23;;;21.33;;
8102;SDS011;4094;49.948;11.574;2023-10-19T07:36:53;22.23;;;20.37;;
8102;SDS011;4094;49.948;11.574;2023-10-19T07:39:22;24.20;;;22.10;;
8102;SDS011;4094;49.948;11.574;2023-10-19T07:41:52;22.30;;;20.33;;
8102;SDS011;4094;49.948;11.574;2023-10-19T07:44:21;24.03;;;21.87;;
8102;SDS011;4094;49.948;11.574;2023-10-19T07:46:52;23.30;;;21.20;;
8102;SDS011;4094;49.948;11.574;2023-10-19T07:49:23;23.40;;;21.30;;
8102;SDS011;4094;49.948;11.574;2023-10-19T07:51:53;22.17;;;20.43;;
8102;SDS011;4094;49.948;11.574;2023-10-19T07:54:25;23.50;;;21.50;;
8102;SDS011;4094;49.948;11.574;2023-10-19T07:56:55;22.60;;;20.80;;
8102;SDS011;4094;49.948;11.574;2023-10-19T07:59:25;22.53;;;20.73;;
8102;SDS011;4094;49.948;11.574;2023-10-19T08:01:54;23.53;;;21.63;;
8102;SDS011;4094;49.948;11.574;2023-10-19T08:04:25;22.87;;;20.90;;
8102;SDS011;4094;49.948;11.574;2023-10-19T08:06:55;23.10;;;21.00;;
8102;SDS011;4094;49.948;11.574;2023-10-19T08:09:25;22.67;;;20.70;;
8102;SDS011;4094;49.948;11.574;2023-10-19T08:11:59;23.43;;;21.47;;
8102;SDS011;4094;49.948;11.574;2023-10-19T08:14:29;21.90;;;20.00;;
8102;SDS011;4094;49.948;11.574;2023-10-19T08:16:58;23.20;;;21.27;;
8102;SDS011;4094;49.948;11.574;2023-10-19T08:19:29;21.93;;;20.13;;
8102;SDS011;4094;49.948;11.574;2023-10-19T08:21:58;23.03;;;21.00;;
8102;SDS011;4094;49.948;11.574;2023-10-19T08:24:28;23.33;;;21.43;;
8102;SDS011;4094;49.948;11.574;2023-10-19T08:26:58;22.33;;;20.40;;
8102;SDS011;4094;49.948;11.574;2023-10-19T08:29:27;23.27;;;21.30;;
8102;SDS011;4094;49.948;11.574;2023-10-19T08:31:58;22.30;;;20.33;;
8102;SDS011;4094;49.948;11.574;2023-10-19T08:34:28;22.80;;;20.87;;
8102;SDS011;4094;49.948;11.574;2023-10-19T08:36:58;23.30;;;21.40;;
8102;SDS011;4094;49.948;11.574;2023-10-19T08:39:28;22.80;;;20.93;;
8102;SDS011;4094;49.948;11.574;2023-10-19T08:42:03;22.00;;;20.20;;
8102;SDS011;4094;49.948;11.574;2023-10-19T08:44:33;23.77;;;21.77;;
8102;SDS011;4094;49.948;11.574;2023-10-19T08:47:03;22.93;;;21.03;;
8102;SDS011;4094;49.948;11.574;2023-10-19T08:49:34;22.57;;;20.70;;
8102;SDS011;4094;49.948;11.574;2023-10-19T08:52:04;22.53;;;20.63;;
8102;SDS011;4094;49.948;11.574;2023-10-19T08:54:34;21.43;;;19.53;;
8102;SDS011;4094;49.948;11.574;2023-10-19T08:57:04;22.33;;;20.43;;
8102;SDS011;4094;49.948;11.574;2023-10-19T08:59:33;22.43;;;20.47;;
8102;SDS011;4094;49.948;11.574;2023-10-19T09:02:02;21.90;;;20.17;;
8102;SDS011;4094;49.948;11.574;2023-10-19T09:04:41;21.00;;;19.30;;
8102;SDS011;4094;49.948;11.574;2023-10-19T09:07:12;20.53;;;18.83;;
8102;SDS011;4094;49.948;11.574;2023-10-19T09:09:41;21.00;;;19.20;;
8102;SDS011;4094;49.948;11.574;2023-10-19T09:12:10;20.67;;;18.90;;
8102;SDS011;4094;49.948;11.574;2023-10-19T09:14:40;21.77;;;19.77;;
8102;SDS011;4094;49.948;11.574;2023-10-19T09:17:10;21.83;;;19.93;;
8102;SDS011;4094;49.948;11.574;2023-10-19T09:19:42;19.90;;;18.30;;
8102;SDS011;4094;49.948;11.574;2023-10-19T09:22:15;19.33;;;17.73;;
8102;SDS011;4094;49.948;11.574;2023-10-19T09:24:50;21.37;;;19.47;;
8102;SDS011;4094;49.948;11.574;2023-10-19T09:27:21;21.53;;;19.73;;
8102;SDS011;4094;49.948;11.574;2023-10-19T09:29:51;21.67;;;19.77;;
8102;SDS011;4094;49.948;11.574;2023-10-19T09:32:20;20.07;;;18.47;;
8102;SDS011;4094;49.948;11.574;2023-10-19T09:34:51;20.50;;;18.77;;
8102;SDS011;4094;49.948;11.574;2023-10-19T09:37:21;21.87;;;19.87;;
8102;SDS011;4094;49.948;11.574;2023-10-19T09:39:51;20.33;;;18.63;;
8102;SDS011;4094;49.948;11.574;2023-10-19T09:42:21;19.77;;;18.07;;
8102;SDS011;4094;49.948;11.574;2023-10-19T09:44:54;20.70;;;18.93;;
8102;SDS011;4094;49.948;11.574;2023-10-19T09:47:34;19.67;;;17.93;;
8102;SDS011;4094;49.948;11.574;2023-10-19T09:50:09;20.57;;;18.87;;
8102;SDS011;4094;49.948;11.574;2023-10-19T09:52:39;21.80;;;19.90;;
8102;SDS011;4094;49.948;11.574;2023-10-19T09:55:10;21.03;;;19.33;;
8102;SDS011;4094;49.948;11.574;2023-10-19T09:57:47;22.03;;;20.23;;
8102;SDS011;4094;49.948;11.574;2023-10-19T10:00:20;21.03;;;19.23;;
8102;SDS011;4094;49.948;11.574;2023-10-19T10:02:52;21.40;;;19.53;;
8102;SDS011;4094;49.948;11.574;2023-10-19T10:05:46;21.30;;;19.57;;
8102;SDS011;4094;49.948;11.574;2023-10-19T10:08:29;21.73;;;19.93;;
8102;SDS011;4094;49.948;11.574;2023-10-19T10:11:12;21.00;;;19.20;;
8102;SDS011;4094;49.948;11.574;2023-10-19T10:13:44;22.37;;;20.57;;
8102;SDS011;4094;49.948;11.574;2023-10-19T10:16:19;20.83;;;19.10;;
8102;SDS011;4094;49.948;11.574;2023-10-19T10:18:51;22.17;;;20.37;;
8102;SDS011;4094;49.948;11.574;2023-10-19T10:21:24;21.47;;;19.67;;
8102;SDS011;4094;49.948;11.574;2023-10-19T10:23:54;22.33;;;20.17;;
8102;SDS011;4094;49.948;11.574;2023-10-19T10:26:25;22.40;;;20.60;;
8102;SDS011;4094;49.948;11.574;2023-10-19T10:29:10;21.37;;;19.27;;
8102;SDS011;4094;49.948;11.574;2023-10-19T10:31:42;20.87;;;19.17;;
8102;SDS011;4094;49.948;11.574;2023-10-19T10:34:16;20.77;;;19.13;;
8102;SDS011;4094;49.948;11.574;2023-10-19T10:37:12;20.23;;;18.53;;
8102;SDS011;4094;49.948;11.574;2023-10-19T10:39:42;20.47;;;18.77;;
8102;SDS011;4094;49.948;11.574;2023-10-19T10:42:12;21.73;;;19.93;;
8102;SDS011;4094;49.948;11.574;2023-10-19T10:44:43;22.03;;;20.13;;
8102;SDS011;4094;49.948;11.574;2023-10-19T10:47:15;22.23;;;20.43;;
8102;SDS011;4094;49.948;11.574;2023-10-19T10:49:49;20.97;;;19.13;;
8102;SDS011;4094;49.948;11.574;2023-10-19T10:52:25;21.27;;;19.47;;
8102;SDS011;4094;49.948;11.574;2023-10-19T10:54:57;20.07;;;18.47;;
8102;SDS011;4094;49.948;11.574;2023-10-19T10:57:30;21.47;;;19.57;;
8102;SDS011;4094;49.948;11.574;2023-10-19T11:00:01;20.87;;;19.13;;
8102;SDS011;4094;49.948;11.574;2023-10-19T11:02:35;21.47;;;19.60;;
8102;SDS011;4094;49.948;11.574;2023-10-19T11:05:10;20.93;;;19.07;;
8102;SDS011;4094;49.948;11.574;2023-10-19T11:10:33;21.20;;;19.37;;
8102;SDS011;4094;49.948;11.574;2023-10-19T11:13:03;19.57;;;17.97;;
8102;SDS011;4094;49.948;11.574;2023-10-19T11:15:34;20.93;;;19.13;;
8102;SDS011;4094;49.948;11.574;2023-10-19T11:18:05;21.17;;;19.17;;
8102;SDS011;4094;49.948;11.574;2023-10-19T11:20:35;20.03;;;18.37;;
8102;SDS011;4094;49.948;11.574;2023-10-19T11:23:06;21.50;;;19.40;;
8102;SDS011;4094;49.948;11.574;2023-10-19T11:25:35;20.60;;;18.83;;
8102;SDS011;4094;49.948;11.574;2023-10-19T11:28:07;20.83;;;19.10;;
8102;SDS011;4094;49.948;11.574;2023-10-19T11:30:46;19.60;;;17.90;;
8102;SDS011;4094;49.948;11.574;2023-10-19T11:33:16;20.13;;;18.43;;
8102;SDS011;4094;49.948;11.574;2023-10-19T11:35:49;19.30;;;17.63;;
8102;SDS011;4094;49.948;11.574;2023-10-19T11:38:21;19.53;;;17.83;;
8102;SDS011;4094;49.948;11.574;2023-10-19T11:40:50;19.80;;;18.00;;
8102;SDS011;4094;49.948;11.574;2023-10-19T11:43:20;17.77;;;16.07;;
8102;SDS011;4094;49.948;11.574;2023-10-19T11:45:49;18.33;;;16.77;;
8102;SDS011;4094;49.948;11.574;2023-10-19T11:48:19;19.07;;;17.47;;
8102;SDS011;4094;49.948;11.574;2023-10-19T11:50:49;18.13;;;16.53;;
8102;SDS011;4094;49.948;11.574;2023-10-19T11:53:19;17.57;;;15.90;;
8102;SDS011;4094;49.948;11.574;2023-10-19T11:55:49;19.00;;;17.30;;
8102;SDS011;4094;49.948;11.574;2023-10-19T11:58:19;19.17;;;17.53;;
8102;SDS011;4094;49.948;11.574;2023-10-19T12:00:48;18.20;;;16.53;;
8102;SDS011;4094;49.948;11.574;2023-10-19T12:03:19;17.90;;;16.40;;
8102;SDS011;4094;49.948;11.574;2023-10-19T12:05:48;18.57;;;17.07;;
8102;SDS011;4094;49.948;11.574;2023-10-19T12:08:17;18.03;;;16.47;;
8102;SDS011;4094;49.948;11.574;2023-10-19T12:10:48;18.30;;;16.70;;
8102;SDS011;4094;49.948;11.574;2023-10-19T12:13:19;19.03;;;17.37;;
8102;SDS011;4094;49.948;11.574;2023-10-19T12:15:48;20.10;;;18.20;;
8102;SDS011;4094;49.948;11.574;2023-10-19T12:18:19;18.50;;;16.90;;
8102;SDS011;4094;49.948;11.574;2023-10-19T12:20:49;18.90;;;17.30;;
8102;SDS011;4094;49.948;11.574;2023-10-19T12:23:18;17.83;;;16.33;;
8102;SDS011;4094;49.948;11.574;2023-10-19T12:25:52;17.77;;;16.27;;
8102;SDS011;4094;49.948;11.574;2023-10-19T12:28:24;17.63;;;16.07;;
8102;SDS011;4094;49.948;11.574;2023-10-19T12:30:53;18.67;;;16.97;;
8102;SDS011;4094;49.948;11.574;2023-10-19T12:33:23;20.50;;;18.70;;
8102;SDS011;4094;49.948;11.574;2023-10-19T12:35:54;18.70;;;17.00;;
8102;SDS011;4094;49.948;11.574;2023-10-19T12:38:24;17.73;;;16.33;;
8102;SDS011;4094;49.948;11.574;2023-10-19T12:40:56;20.20;;;18.50;;
8102;SDS011;4094;49.948;11.574;2023-10-19T12:43:26;18.53;;;16.97;;
8102;SDS011;4094;49.948;11.574;2023-10-19T12:45:57;18.13;;;16.60;;
8102;SDS011;4094;49.948;11.574;2023-10-19T12:48:26;17.97;;;16.47;;
8102;SDS011;4094;49.948;11.574;2023-10-19T12:51:00;17.73;;;16.33;;
8102;SDS011;4094;49.948;11.574;2023-10-19T12:53:30;19.23;;;17.63;;
8102;SDS011;4094;49.948;11.574;2023-10-19T12:56:01;20.30;;;18.60;;
8102;SDS011;4094;49.948;11.574;2023-10-19T12:58:31;19.80;;;18.03;;
8102;SDS011;4094;49.948;11.574;2023-10-19T13:01:00;20.17;;;18.47;;
8102;SDS011;4094;49.948;11.574;2023-10-19T13:03:32;21.27;;;19.43;;
8102;SDS011;4094;49.948;11.574;2023-10-19T13:06:04;20.60;;;18.80;;
8102;SDS011;4094;49.948;11.574;2023-10-19T13:08:35;18.13;;;16.57;;
8102;SDS011;4094;49.948;11.574;2023-10-19T13:11:07;20.80;;;18.77;;
8102;SDS011;4094;49.948;11.574;2023-10-19T13:13:45;20.80;;;18.90;;
8102;SDS011;4094;49.948;11.574;2023-10-19T13:16:15;20.13;;;18.40;;
8102;SDS011;4094;49.948;11.574;2023-10-19T13:18:44;20.03;;;18.33;;
8102;SDS011;4094;49.948;11.574;2023-10-19T13:21:13;20.27;;;18.57;;
8102;SDS011;4094;49.948;11.574;2023-10-19T13:23:56;21.57;;;19.57;;
8102;SDS011;4094;49.948;11.574;2023-10-19T13:26:38;19.43;;;17.63;;
8102;SDS011;4094;49.948;11.574;2023-10-19T13:29:41;18.47;;;16.93;;
8102;SDS011;4094;49.948;11.574;2023-10-19T13:32:18;18.47;;;16.97;;
8102;SDS011;4094;49.948;11.574;2023-10-19T13:35:21;18.90;;;17.40;;
8102;SDS011;4094;49.948;11.574;2023-10-19T13:37:50;17.67;;;16.17;;
8102;SDS011;4094;49.948;11.574;2023-10-19T13:40:20;19.50;;;17.80;;
8102;SDS011;4094;49.948;11.574;2023-10-19T13:42:52;18.87;;;17.17;;
8102;SDS011;4094;49.948;11.574;2023-10-19T13:45:40;19.40;;;17.70;;
8102;SDS011;4094;49.948;11.574;2023-10-19T13:48:12;19.83;;;18.13;;
8102;SDS011;4094;49.948;11.574;2023-10-19T13:50:42;19.67;;;17.87;;
8102;SDS011;4094;49.948;11.574;2023-10-19T13:53:15;18.83;;;17.33;;
8102;SDS011;4094;49.948;11.574;2023-10-19T13:55:45;20.20;;;18.30;;
8102;SDS011;4094;49.948;11.574;2023-10-19T13:58:16;18.83;;;17.00;;
8102;SDS011;4094;49.948;11.574;2023-10-19T14:00:45;20.07;;;18.37;;
8102;SDS011;4094;49.948;11.574;2023-10-19T14:03:15;21.00;;;19.00;;
8102;SDS011;4094;49.948;11.574;2023-10-19T14:05:45;19.67;;;17.87;;
8102;SDS011;4094;49.948;11.574;2023-10-19T14:08:16;20.20;;;18.33;;
8102;SDS011;4094;49.948;11.574;2023-10-19T14:10:46;20.43;;;18.73;;
8102;SDS011;4094;49.948;11.574;2023-10-19T14:13:16;19.00;;;17.30;;
8102;SDS011;4094;49.948;11.574;2023-10-19T14:15:45;19.50;;;17.80;;
8102;SDS011;4094;49.948;11.574;2023-10-19T14:18:14;19.07;;;17.47;;
8102;SDS011;4094;49.948;11.574;2023-10-19T14:20:44;18.40;;;16.70;;
8102;SDS011;4094;49.948;11.574;2023-10-19T14:23:13;19.40;;;17.70;;
8102;SDS011;4094;49.948;11.574;2023-10-19T14:25:42;17.60;;;16.10;;
8102;SDS011;4094;49.948;11.574;2023-10-19T14:28:12;20.77;;;19.03;;
8102;SDS011;4094;49.948;11.574;2023-10-19T14:30:42;18.20;;;16.70;;
8102;SDS011;4094;49.948;11.574;2023-10-19T14:33:12;18.43;;;16.93;;
8102;SDS011;4094;49.948;11.574;2023-10-19T14:35:41;18.37;;;16.77;;
8102;SDS011;4094;49.948;11.574;2023-10-19T14:38:10;18.80;;;17.13;;
8102;SDS011;4094;49.948;11.574;2023-10-19T14:40:42;18.23;;;16.73;;
8102;SDS011;4094;49.948;11.574;2023-10-19T14:43:14;20.30;;;18.70;;
8102;SDS011;4094;49.948;11.574;2023-10-19T14:45:44;18.27;;;16.73;;
8102;SDS011;4094;49.948;11.574;2023-10-19T14:48:13;19.87;;;18.27;;
8102;SDS011;4094;49.948;11.574;2023-10-19T14:50:45;20.33;;;18.43;;
8102;SDS011;4094;49.948;11.574;2023-10-19T14:53:14;19.47;;;17.87;;
8102;SDS011;4094;49.948;11.574;2023-10-19T14:55:44;20.80;;;19.10;;
8102;SDS011;4094;49.948;11.574;2023-10-19T14:58:13;18.40;;;16.90;;
8102;SDS011;4094;49.948;11.574;2023-10-19T15:00:42;20.10;;;18.23;;
8102;SDS011;4094;49.948;11.574;2023-10-19T15:03:14;18.70;;;17.10;;